Pagina principale
METAR-TAF:

METAR-TAF

Aeroporti :

Aeroporto Internazionale di Edmonton

Edmonton, Alberta, Canada

latitudine: 53-18N, longitudine: 113-35W, altezza: 715 m

Osservazione

Il bollettino è stato emesso 1 ora e 8 minuti fa, alle 02:00 UTC
Vento 11 kt da sud-est
Temperature 7°C
Umidità 45%
Pressione 1017 hPa
Visibilità: 32.2 km
Cielo sereno

METAR: CYEG 230200Z 14011KT 20SM SKC 07/M04 A3004 RMK SLP205

Ora: 21:08 (03:08 UTC)

Previsione

Il bollettino è stato emesso 30 minuti fa, alle 02:38 UTC
Previsione valida dal 23 alle 03 UTC al 23 alle 24 UTC
Vento 12 kt da sud-est
Visibilità: 10 km
Cielo sereno
Evoluzione graduale
dal 23 alle 09 UTC al 23 alle 11 UTC
Vento 8 kt da sud-est

TAF: CYEG 230238Z 2303/2324 14012KT P6SM SKC BECMG 2309/2311 14008KT RMK NXT FCST BY 230600Z

Osservazioni e previsioni meteorologiche di più di 4000 aeroporti (messaggi METAR e TAF).

Le stazioni disponibili sono rappresentate dai dischi gialli e rossi sulla carta.

Puntare il mouse per vedere il nome della stazione.

Clicca sopra per visualizzare le osservazioni e previsioni meteorologiche.

Per cambiare la mappa : fare clic sui pulsanti verdi con una croce nera per ingrandire, il pulsante verde con un trattino per diminuire, o sulla freccia verde per le mappe adiacenti.


METAR-TAF: